sensor_id;sensor_type;location;lat;lon;timestamp;P1;durP1;ratioP1;P2;durP2;ratioP2
19735;SDS011;32064;49.310;8.646;2023-03-01T00:00:10;10.03;;;7.30;;
19735;SDS011;32064;49.310;8.646;2023-03-01T00:02:36;15.67;;;7.73;;
19735;SDS011;32064;49.310;8.646;2023-03-01T00:05:02;10.87;;;7.93;;
19735;SDS011;32064;49.310;8.646;2023-03-01T00:07:28;9.97;;;7.40;;
19735;SDS011;32064;49.310;8.646;2023-03-01T00:09:53;11.93;;;7.97;;
19735;SDS011;32064;49.310;8.646;2023-03-01T00:12:19;11.63;;;8.00;;
19735;SDS011;32064;49.310;8.646;2023-03-01T00:14:45;9.43;;;7.13;;
19735;SDS011;32064;49.310;8.646;2023-03-01T00:17:10;8.57;;;7.03;;
19735;SDS011;32064;49.310;8.646;2023-03-01T00:19:35;9.97;;;7.03;;
19735;SDS011;32064;49.310;8.646;2023-03-01T00:22:02;8.63;;;7.00;;
19735;SDS011;32064;49.310;8.646;2023-03-01T00:24:27;8.20;;;6.90;;
19735;SDS011;32064;49.310;8.646;2023-03-01T00:26:53;9.23;;;7.30;;
19735;SDS011;32064;49.310;8.646;2023-03-01T00:29:21;11.43;;;6.67;;
19735;SDS011;32064;49.310;8.646;2023-03-01T00:31:47;8.77;;;7.27;;
19735;SDS011;32064;49.310;8.646;2023-03-01T00:34:12;9.77;;;6.97;;
19735;SDS011;32064;49.310;8.646;2023-03-01T00:36:37;9.80;;;7.07;;
19735;SDS011;32064;49.310;8.646;2023-03-01T00:39:04;12.43;;;7.27;;
19735;SDS011;32064;49.310;8.646;2023-03-01T00:41:32;10.50;;;6.90;;
19735;SDS011;32064;49.310;8.646;2023-03-01T00:43:59;12.00;;;7.13;;
19735;SDS011;32064;49.310;8.646;2023-03-01T00:46:25;9.60;;;7.67;;
19735;SDS011;32064;49.310;8.646;2023-03-01T00:48:52;11.10;;;7.30;;
19735;SDS011;32064;49.310;8.646;2023-03-01T00:51:21;9.07;;;7.40;;
19735;SDS011;32064;49.310;8.646;2023-03-01T00:53:49;10.20;;;7.60;;
19735;SDS011;32064;49.310;8.646;2023-03-01T00:56:16;9.33;;;7.13;;
19735;SDS011;32064;49.310;8.646;2023-03-01T00:58:41;12.03;;;7.67;;
19735;SDS011;32064;49.310;8.646;2023-03-01T01:01:07;8.87;;;7.60;;
19735;SDS011;32064;49.310;8.646;2023-03-01T01:04:02;8.43;;;6.93;;
19735;SDS011;32064;49.310;8.646;2023-03-01T01:06:33;10.17;;;7.73;;
19735;SDS011;32064;49.310;8.646;2023-03-01T01:09:01;8.37;;;6.90;;
19735;SDS011;32064;49.310;8.646;2023-03-01T01:11:29;10.37;;;8.00;;
19735;SDS011;32064;49.310;8.646;2023-03-01T01:13:55;9.93;;;7.53;;
19735;SDS011;32064;49.310;8.646;2023-03-01T01:16:23;14.90;;;7.53;;
19735;SDS011;32064;49.310;8.646;2023-03-01T01:18:51;8.83;;;7.63;;
19735;SDS011;32064;49.310;8.646;2023-03-01T01:21:17;10.67;;;7.87;;
19735;SDS011;32064;49.310;8.646;2023-03-01T01:23:44;9.67;;;8.00;;
19735;SDS011;32064;49.310;8.646;2023-03-01T01:26:12;10.70;;;7.80;;
19735;SDS011;32064;49.310;8.646;2023-03-01T01:28:42;9.43;;;6.90;;
19735;SDS011;32064;49.310;8.646;2023-03-01T01:31:07;9.93;;;7.77;;
19735;SDS011;32064;49.310;8.646;2023-03-01T01:33:33;9.00;;;7.73;;
19735;SDS011;32064;49.310;8.646;2023-03-01T01:35:59;10.73;;;8.77;;
19735;SDS011;32064;49.310;8.646;2023-03-01T01:38:24;9.27;;;7.70;;
19735;SDS011;32064;49.310;8.646;2023-03-01T01:40:50;11.50;;;8.40;;
19735;SDS011;32064;49.310;8.646;2023-03-01T01:43:18;10.70;;;7.77;;
19735;SDS011;32064;49.310;8.646;2023-03-01T01:46:02;10.80;;;8.33;;
19735;SDS011;32064;49.310;8.646;2023-03-01T01:48:52;13.70;;;8.53;;
19735;SDS011;32064;49.310;8.646;2023-03-01T01:51:25;11.13;;;8.30;;
19735;SDS011;32064;49.310;8.646;2023-03-01T01:54:03;8.73;;;7.73;;
19735;SDS011;32064;49.310;8.646;2023-03-01T01:56:34;11.90;;;8.30;;
19735;SDS011;32064;49.310;8.646;2023-03-01T01:59:02;11.70;;;8.60;;
19735;SDS011;32064;49.310;8.646;2023-03-01T02:01:27;15.30;;;8.77;;
19735;SDS011;32064;49.310;8.646;2023-03-01T02:03:52;11.00;;;8.63;;
19735;SDS011;32064;49.310;8.646;2023-03-01T02:06:22;11.20;;;8.00;;
19735;SDS011;32064;49.310;8.646;2023-03-01T02:08:53;12.07;;;9.53;;
19735;SDS011;32064;49.310;8.646;2023-03-01T02:11:22;9.80;;;8.50;;
19735;SDS011;32064;49.310;8.646;2023-03-01T02:13:48;10.93;;;8.63;;
19735;SDS011;32064;49.310;8.646;2023-03-01T02:16:15;10.30;;;8.60;;
19735;SDS011;32064;49.310;8.646;2023-03-01T02:18:41;10.53;;;9.00;;
19735;SDS011;32064;49.310;8.646;2023-03-01T02:23:40;13.03;;;9.20;;
19735;SDS011;32064;49.310;8.646;2023-03-01T02:26:20;11.63;;;9.43;;
19735;SDS011;32064;49.310;8.646;2023-03-01T02:28:52;11.87;;;8.87;;
19735;SDS011;32064;49.310;8.646;2023-03-01T02:31:19;10.63;;;8.93;;
19735;SDS011;32064;49.310;8.646;2023-03-01T02:34:05;11.40;;;8.90;;
19735;SDS011;32064;49.310;8.646;2023-03-01T02:36:34;11.00;;;8.47;;
19735;SDS011;32064;49.310;8.646;2023-03-01T02:39:04;11.77;;;8.97;;
19735;SDS011;32064;49.310;8.646;2023-03-01T02:41:33;11.77;;;9.27;;
19735;SDS011;32064;49.310;8.646;2023-03-01T02:44:02;11.00;;;8.40;;
19735;SDS011;32064;49.310;8.646;2023-03-01T02:46:28;13.57;;;9.40;;
19735;SDS011;32064;49.310;8.646;2023-03-01T02:48:57;11.80;;;8.53;;
19735;SDS011;32064;49.310;8.646;2023-03-01T02:51:37;11.23;;;9.03;;
19735;SDS011;32064;49.310;8.646;2023-03-01T02:54:19;10.90;;;8.83;;
19735;SDS011;32064;49.310;8.646;2023-03-01T02:56:50;11.53;;;9.17;;
19735;SDS011;32064;49.310;8.646;2023-03-01T02:59:18;11.97;;;9.00;;
19735;SDS011;32064;49.310;8.646;2023-03-01T03:01:45;11.70;;;9.37;;
19735;SDS011;32064;49.310;8.646;2023-03-01T03:04:13;12.30;;;9.27;;
19735;SDS011;32064;49.310;8.646;2023-03-01T03:06:42;13.50;;;9.10;;
19735;SDS011;32064;49.310;8.646;2023-03-01T03:09:11;12.90;;;9.70;;
19735;SDS011;32064;49.310;8.646;2023-03-01T03:11:38;13.47;;;9.17;;
19735;SDS011;32064;49.310;8.646;2023-03-01T03:14:05;12.00;;;9.10;;
19735;SDS011;32064;49.310;8.646;2023-03-01T03:16:30;11.67;;;9.03;;
19735;SDS011;32064;49.310;8.646;2023-03-01T03:18:56;10.13;;;8.47;;
19735;SDS011;32064;49.310;8.646;2023-03-01T03:21:30;10.23;;;8.77;;
19735;SDS011;32064;49.310;8.646;2023-03-01T03:23:59;13.50;;;9.53;;
19735;SDS011;32064;49.310;8.646;2023-03-01T03:26:24;13.87;;;9.70;;
19735;SDS011;32064;49.310;8.646;2023-03-01T03:28:50;14.40;;;10.03;;
19735;SDS011;32064;49.310;8.646;2023-03-01T03:31:15;11.77;;;9.67;;
19735;SDS011;32064;49.310;8.646;2023-03-01T03:33:41;14.87;;;9.50;;
19735;SDS011;32064;49.310;8.646;2023-03-01T03:36:06;13.57;;;9.80;;
19735;SDS011;32064;49.310;8.646;2023-03-01T03:38:38;13.70;;;9.53;;
19735;SDS011;32064;49.310;8.646;2023-03-01T03:41:06;13.73;;;9.97;;
19735;SDS011;32064;49.310;8.646;2023-03-01T03:43:33;14.67;;;10.33;;
19735;SDS011;32064;49.310;8.646;2023-03-01T03:46:00;13.30;;;9.97;;
19735;SDS011;32064;49.310;8.646;2023-03-01T03:48:28;12.77;;;9.77;;
19735;SDS011;32064;49.310;8.646;2023-03-01T03:50:54;12.17;;;9.80;;
19735;SDS011;32064;49.310;8.646;2023-03-01T03:53:21;13.83;;;9.80;;
19735;SDS011;32064;49.310;8.646;2023-03-01T03:55:48;13.33;;;9.40;;
19735;SDS011;32064;49.310;8.646;2023-03-01T03:58:14;14.40;;;9.50;;
19735;SDS011;32064;49.310;8.646;2023-03-01T04:00:42;11.87;;;9.60;;
19735;SDS011;32064;49.310;8.646;2023-03-01T04:03:10;12.47;;;9.23;;
19735;SDS011;32064;49.310;8.646;2023-03-01T04:05:37;12.50;;;9.50;;
19735;SDS011;32064;49.310;8.646;2023-03-01T04:08:03;13.77;;;10.53;;
19735;SDS011;32064;49.310;8.646;2023-03-01T04:10:39;11.60;;;10.10;;
19735;SDS011;32064;49.310;8.646;2023-03-01T04:13:08;13.57;;;9.70;;
19735;SDS011;32064;49.310;8.646;2023-03-01T04:15:37;10.87;;;9.57;;
19735;SDS011;32064;49.310;8.646;2023-03-01T04:18:03;13.33;;;10.13;;
19735;SDS011;32064;49.310;8.646;2023-03-01T04:20:29;15.17;;;10.53;;
19735;SDS011;32064;49.310;8.646;2023-03-01T04:22:57;13.57;;;10.07;;
19735;SDS011;32064;49.310;8.646;2023-03-01T04:25:25;17.67;;;9.67;;
19735;SDS011;32064;49.310;8.646;2023-03-01T04:27:50;13.53;;;10.33;;
19735;SDS011;32064;49.310;8.646;2023-03-01T04:30:16;12.37;;;10.03;;
19735;SDS011;32064;49.310;8.646;2023-03-01T04:32:41;13.10;;;9.73;;
19735;SDS011;32064;49.310;8.646;2023-03-01T04:35:07;14.33;;;10.07;;
19735;SDS011;32064;49.310;8.646;2023-03-01T04:37:33;12.03;;;10.53;;
19735;SDS011;32064;49.310;8.646;2023-03-01T04:40:00;15.13;;;10.30;;
19735;SDS011;32064;49.310;8.646;2023-03-01T04:42:26;15.57;;;10.50;;
19735;SDS011;32064;49.310;8.646;2023-03-01T04:44:51;13.73;;;10.70;;
19735;SDS011;32064;49.310;8.646;2023-03-01T04:47:17;17.40;;;11.13;;
19735;SDS011;32064;49.310;8.646;2023-03-01T04:49:42;14.17;;;10.93;;
19735;SDS011;32064;49.310;8.646;2023-03-01T04:52:08;13.77;;;10.73;;
19735;SDS011;32064;49.310;8.646;2023-03-01T04:54:34;12.73;;;9.87;;
19735;SDS011;32064;49.310;8.646;2023-03-01T04:57:00;12.80;;;10.90;;
19735;SDS011;32064;49.310;8.646;2023-03-01T04:59:27;12.77;;;10.23;;
19735;SDS011;32064;49.310;8.646;2023-03-01T05:01:53;11.90;;;10.27;;
19735;SDS011;32064;49.310;8.646;2023-03-01T05:04:21;16.37;;;10.73;;
19735;SDS011;32064;49.310;8.646;2023-03-01T05:06:47;14.93;;;10.37;;
19735;SDS011;32064;49.310;8.646;2023-03-01T05:09:12;13.47;;;9.70;;
19735;SDS011;32064;49.310;8.646;2023-03-01T05:11:37;13.10;;;10.67;;
19735;SDS011;32064;49.310;8.646;2023-03-01T05:14:03;13.67;;;10.43;;
19735;SDS011;32064;49.310;8.646;2023-03-01T05:16:30;15.30;;;10.70;;
19735;SDS011;32064;49.310;8.646;2023-03-01T05:18:56;13.40;;;10.80;;
19735;SDS011;32064;49.310;8.646;2023-03-01T05:21:22;12.23;;;10.20;;
19735;SDS011;32064;49.310;8.646;2023-03-01T05:23:47;11.70;;;10.00;;
19735;SDS011;32064;49.310;8.646;2023-03-01T05:26:13;15.23;;;10.90;;
19735;SDS011;32064;49.310;8.646;2023-03-01T05:28:39;13.73;;;10.93;;
19735;SDS011;32064;49.310;8.646;2023-03-01T05:31:05;12.43;;;9.70;;
19735;SDS011;32064;49.310;8.646;2023-03-01T05:33:35;13.70;;;10.77;;
19735;SDS011;32064;49.310;8.646;2023-03-01T05:36:05;15.00;;;10.43;;
19735;SDS011;32064;49.310;8.646;2023-03-01T05:38:37;15.53;;;10.90;;
19735;SDS011;32064;49.310;8.646;2023-03-01T05:41:02;14.87;;;11.37;;
19735;SDS011;32064;49.310;8.646;2023-03-01T05:43:29;18.00;;;11.50;;
19735;SDS011;32064;49.310;8.646;2023-03-01T05:45:59;15.00;;;10.90;;
19735;SDS011;32064;49.310;8.646;2023-03-01T05:48:25;18.63;;;12.23;;
19735;SDS011;32064;49.310;8.646;2023-03-01T05:50:51;19.83;;;12.77;;
19735;SDS011;32064;49.310;8.646;2023-03-01T05:53:17;18.63;;;13.00;;
19735;SDS011;32064;49.310;8.646;2023-03-01T05:55:46;16.60;;;12.77;;
19735;SDS011;32064;49.310;8.646;2023-03-01T05:58:16;17.73;;;12.07;;
19735;SDS011;32064;49.310;8.646;2023-03-01T06:00:43;14.97;;;11.73;;
19735;SDS011;32064;49.310;8.646;2023-03-01T06:03:11;15.83;;;11.20;;
19735;SDS011;32064;49.310;8.646;2023-03-01T06:05:38;17.67;;;11.77;;
19735;SDS011;32064;49.310;8.646;2023-03-01T06:08:04;15.07;;;11.23;;
19735;SDS011;32064;49.310;8.646;2023-03-01T06:10:30;18.23;;;11.37;;
19735;SDS011;32064;49.310;8.646;2023-03-01T06:12:55;14.13;;;11.53;;
19735;SDS011;32064;49.310;8.646;2023-03-01T06:15:22;15.53;;;11.27;;
19735;SDS011;32064;49.310;8.646;2023-03-01T06:17:48;14.53;;;11.63;;
19735;SDS011;32064;49.310;8.646;2023-03-01T06:20:15;15.63;;;12.13;;
19735;SDS011;32064;49.310;8.646;2023-03-01T06:22:44;13.53;;;11.43;;
19735;SDS011;32064;49.310;8.646;2023-03-01T06:25:12;13.47;;;10.87;;
19735;SDS011;32064;49.310;8.646;2023-03-01T06:27:39;14.50;;;11.97;;
19735;SDS011;32064;49.310;8.646;2023-03-01T06:30:05;14.90;;;11.37;;
19735;SDS011;32064;49.310;8.646;2023-03-01T06:32:32;16.33;;;11.87;;
19735;SDS011;32064;49.310;8.646;2023-03-01T06:34:58;14.40;;;11.87;;
19735;SDS011;32064;49.310;8.646;2023-03-01T06:37:24;16.27;;;12.70;;
19735;SDS011;32064;49.310;8.646;2023-03-01T06:39:52;17.17;;;11.87;;
19735;SDS011;32064;49.310;8.646;2023-03-01T06:42:17;16.73;;;11.83;;
19735;SDS011;32064;49.310;8.646;2023-03-01T06:44:43;15.10;;;11.43;;
19735;SDS011;32064;49.310;8.646;2023-03-01T06:47:09;17.47;;;11.50;;
19735;SDS011;32064;49.310;8.646;2023-03-01T06:49:35;17.80;;;11.97;;
19735;SDS011;32064;49.310;8.646;2023-03-01T06:52:00;14.90;;;10.77;;
19735;SDS011;32064;49.310;8.646;2023-03-01T06:54:25;14.27;;;11.77;;
19735;SDS011;32064;49.310;8.646;2023-03-01T06:56:51;19.13;;;12.73;;
19735;SDS011;32064;49.310;8.646;2023-03-01T06:59:16;16.40;;;12.87;;
19735;SDS011;32064;49.310;8.646;2023-03-01T07:01:42;16.20;;;11.70;;
19735;SDS011;32064;49.310;8.646;2023-03-01T07:04:08;15.17;;;11.53;;
19735;SDS011;32064;49.310;8.646;2023-03-01T07:06:34;15.27;;;11.20;;
19735;SDS011;32064;49.310;8.646;2023-03-01T07:08:59;16.13;;;11.80;;
19735;SDS011;32064;49.310;8.646;2023-03-01T07:11:24;14.60;;;11.03;;
19735;SDS011;32064;49.310;8.646;2023-03-01T07:13:50;16.50;;;11.00;;
19735;SDS011;32064;49.310;8.646;2023-03-01T07:16:15;14.50;;;11.47;;
19735;SDS011;32064;49.310;8.646;2023-03-01T07:18:41;17.50;;;11.87;;
19735;SDS011;32064;49.310;8.646;2023-03-01T07:21:07;13.50;;;11.07;;
19735;SDS011;32064;49.310;8.646;2023-03-01T07:23:34;13.53;;;10.97;;
19735;SDS011;32064;49.310;8.646;2023-03-01T07:26:00;13.57;;;11.10;;
19735;SDS011;32064;49.310;8.646;2023-03-01T07:28:26;14.23;;;11.37;;
19735;SDS011;32064;49.310;8.646;2023-03-01T07:30:52;18.10;;;12.03;;
19735;SDS011;32064;49.310;8.646;2023-03-01T07:33:17;14.13;;;11.73;;
19735;SDS011;32064;49.310;8.646;2023-03-01T07:35:42;13.53;;;11.23;;
19735;SDS011;32064;49.310;8.646;2023-03-01T07:38:08;14.27;;;11.23;;
19735;SDS011;32064;49.310;8.646;2023-03-01T07:40:34;15.67;;;12.00;;
19735;SDS011;32064;49.310;8.646;2023-03-01T07:42:59;17.37;;;12.67;;
19735;SDS011;32064;49.310;8.646;2023-03-01T07:45:26;17.83;;;12.20;;
19735;SDS011;32064;49.310;8.646;2023-03-01T07:47:52;14.40;;;11.07;;
19735;SDS011;32064;49.310;8.646;2023-03-01T07:50:18;18.80;;;11.27;;
19735;SDS011;32064;49.310;8.646;2023-03-01T07:52:47;14.00;;;11.60;;
19735;SDS011;32064;49.310;8.646;2023-03-01T07:55:13;17.07;;;11.50;;
19735;SDS011;32064;49.310;8.646;2023-03-01T07:57:39;14.03;;;10.60;;
19735;SDS011;32064;49.310;8.646;2023-03-01T08:00:06;13.60;;;11.57;;
19735;SDS011;32064;49.310;8.646;2023-03-01T08:02:36;14.17;;;11.23;;
19735;SDS011;32064;49.310;8.646;2023-03-01T08:05:01;17.07;;;10.90;;
19735;SDS011;32064;49.310;8.646;2023-03-01T08:07:26;18.00;;;11.53;;
19735;SDS011;32064;49.310;8.646;2023-03-01T08:09:52;13.77;;;11.20;;
19735;SDS011;32064;49.310;8.646;2023-03-01T08:12:17;16.37;;;11.70;;
19735;SDS011;32064;49.310;8.646;2023-03-01T08:14:43;15.03;;;11.83;;
19735;SDS011;32064;49.310;8.646;2023-03-01T08:17:08;18.23;;;11.13;;
19735;SDS011;32064;49.310;8.646;2023-03-01T08:19:34;15.90;;;11.40;;
19735;SDS011;32064;49.310;8.646;2023-03-01T08:22:00;14.70;;;11.40;;
19735;SDS011;32064;49.310;8.646;2023-03-01T08:24:26;13.50;;;10.90;;
19735;SDS011;32064;49.310;8.646;2023-03-01T08:26:52;13.07;;;10.80;;
19735;SDS011;32064;49.310;8.646;2023-03-01T08:29:17;13.70;;;10.67;;
19735;SDS011;32064;49.310;8.646;2023-03-01T08:31:43;14.50;;;12.17;;
19735;SDS011;32064;49.310;8.646;2023-03-01T08:34:09;12.50;;;11.20;;
19735;SDS011;32064;49.310;8.646;2023-03-01T08:36:41;14.73;;;11.77;;
19735;SDS011;32064;49.310;8.646;2023-03-01T08:39:09;12.97;;;11.53;;
19735;SDS011;32064;49.310;8.646;2023-03-01T08:41:36;13.37;;;11.37;;
19735;SDS011;32064;49.310;8.646;2023-03-01T08:44:02;13.97;;;11.63;;
19735;SDS011;32064;49.310;8.646;2023-03-01T08:46:29;15.30;;;11.87;;
19735;SDS011;32064;49.310;8.646;2023-03-01T08:48:56;15.88;;;11.40;;
19735;SDS011;32064;49.310;8.646;2023-03-01T08:51:22;14.40;;;11.97;;
19735;SDS011;32064;49.310;8.646;2023-03-01T08:53:49;14.47;;;12.80;;
19735;SDS011;32064;49.310;8.646;2023-03-01T08:56:15;13.60;;;12.10;;
19735;SDS011;32064;49.310;8.646;2023-03-01T08:58:44;14.73;;;12.00;;
19735;SDS011;32064;49.310;8.646;2023-03-01T09:01:12;15.00;;;11.60;;
19735;SDS011;32064;49.310;8.646;2023-03-01T09:03:42;15.47;;;12.17;;
19735;SDS011;32064;49.310;8.646;2023-03-01T09:06:08;15.27;;;12.43;;
19735;SDS011;32064;49.310;8.646;2023-03-01T09:08:35;15.60;;;12.10;;
19735;SDS011;32064;49.310;8.646;2023-03-01T09:11:06;14.10;;;12.17;;
19735;SDS011;32064;49.310;8.646;2023-03-01T09:13:34;16.67;;;11.97;;
19735;SDS011;32064;49.310;8.646;2023-03-01T09:16:00;14.87;;;12.63;;
19735;SDS011;32064;49.310;8.646;2023-03-01T09:18:28;14.80;;;12.10;;
19735;SDS011;32064;49.310;8.646;2023-03-01T09:21:00;14.33;;;12.30;;
19735;SDS011;32064;49.310;8.646;2023-03-01T09:23:35;15.20;;;12.70;;
19735;SDS011;32064;49.310;8.646;2023-03-01T09:26:06;16.27;;;12.40;;
19735;SDS011;32064;49.310;8.646;2023-03-01T09:28:33;15.30;;;12.50;;
19735;SDS011;32064;49.310;8.646;2023-03-01T09:30:59;13.90;;;11.37;;
19735;SDS011;32064;49.310;8.646;2023-03-01T09:33:25;16.77;;;12.10;;
19735;SDS011;32064;49.310;8.646;2023-03-01T09:35:58;14.93;;;12.40;;
19735;SDS011;32064;49.310;8.646;2023-03-01T09:38:25;16.70;;;11.50;;
19735;SDS011;32064;49.310;8.646;2023-03-01T09:40:51;15.67;;;12.30;;
19735;SDS011;32064;49.310;8.646;2023-03-01T09:46:11;15.82;;;11.70;;
19735;SDS011;32064;49.310;8.646;2023-03-01T09:48:46;15.63;;;12.15;;
19735;SDS011;32064;49.310;8.646;2023-03-01T09:51:27;13.43;;;12.00;;
19735;SDS011;32064;49.310;8.646;2023-03-01T09:53:54;16.50;;;12.93;;
19735;SDS011;32064;49.310;8.646;2023-03-01T09:56:22;15.43;;;12.88;;
19735;SDS011;32064;49.310;8.646;2023-03-01T09:58:58;14.95;;;12.27;;
19735;SDS011;32064;49.310;8.646;2023-03-01T10:09:39;14.15;;;12.63;;
19735;SDS011;32064;49.310;8.646;2023-03-01T10:12:34;13.80;;;11.85;;
19735;SDS011;32064;49.310;8.646;2023-03-01T10:15:00;16.23;;;12.63;;
19735;SDS011;32064;49.310;8.646;2023-03-01T10:17:34;13.60;;;12.20;;
19735;SDS011;32064;49.310;8.646;2023-03-01T10:20:14;13.57;;;12.27;;
19735;SDS011;32064;49.310;8.646;2023-03-01T10:22:52;13.30;;;11.85;;
19735;SDS011;32064;49.310;8.646;2023-03-01T10:28:44;12.95;;;11.65;;
19735;SDS011;32064;49.310;8.646;2023-03-01T10:30:56;13.00;;;11.70;;
19735;SDS011;32064;49.310;8.646;2023-03-01T10:33:28;13.88;;;12.07;;
19735;SDS011;32064;49.310;8.646;2023-03-01T10:35:56;13.07;;;11.82;;
19735;SDS011;32064;49.310;8.646;2023-03-01T10:38:21;13.40;;;11.43;;
19735;SDS011;32064;49.310;8.646;2023-03-01T10:43:22;12.80;;;11.50;;
19735;SDS011;32064;49.310;8.646;2023-03-01T10:45:49;13.77;;;11.90;;
19735;SDS011;32064;49.310;8.646;2023-03-01T10:50:47;12.73;;;11.43;;
19735;SDS011;32064;49.310;8.646;2023-03-01T10:53:27;12.57;;;11.35;;
19735;SDS011;32064;49.310;8.646;2023-03-01T10:56:12;14.98;;;11.60;;
19735;SDS011;32064;49.310;8.646;2023-03-01T10:58:41;13.45;;;12.05;;
19735;SDS011;32064;49.310;8.646;2023-03-01T11:01:25;12.82;;;11.60;;
19735;SDS011;32064;49.310;8.646;2023-03-01T11:04:10;13.18;;;11.82;;
19735;SDS011;32064;49.310;8.646;2023-03-01T11:06:41;12.82;;;11.68;;
19735;SDS011;32064;49.310;8.646;2023-03-01T11:09:14;12.68;;;11.43;;
19735;SDS011;32064;49.310;8.646;2023-03-01T11:11:43;12.48;;;11.18;;
19735;SDS011;32064;49.310;8.646;2023-03-01T11:14:15;12.38;;;11.13;;
19735;SDS011;32064;49.310;8.646;2023-03-01T11:16:46;15.65;;;11.75;;
19735;SDS011;32064;49.310;8.646;2023-03-01T11:19:16;13.40;;;10.68;;
19735;SDS011;32064;49.310;8.646;2023-03-01T11:24:15;11.90;;;10.70;;
19735;SDS011;32064;49.310;8.646;2023-03-01T11:26:44;12.75;;;10.77;;
19735;SDS011;32064;49.310;8.646;2023-03-01T11:32:01;11.77;;;10.57;;
19735;SDS011;32064;49.310;8.646;2023-03-01T11:37:44;11.85;;;10.40;;
19735;SDS011;32064;49.310;8.646;2023-03-01T11:40:23;12.40;;;11.20;;
19735;SDS011;32064;49.310;8.646;2023-03-01T11:50:47;12.30;;;11.00;;
19735;SDS011;32064;49.310;8.646;2023-03-01T12:01:37;12.70;;;10.27;;
19735;SDS011;32064;49.310;8.646;2023-03-01T12:09:46;11.63;;;9.85;;
19735;SDS011;32064;49.310;8.646;2023-03-01T12:12:26;12.10;;;10.27;;
19735;SDS011;32064;49.310;8.646;2023-03-01T12:48:19;10.52;;;9.43;;
19735;SDS011;32064;49.310;8.646;2023-03-01T12:50:59;10.73;;;9.45;;
19735;SDS011;32064;49.310;8.646;2023-03-01T12:53:29;10.07;;;9.05;;
19735;SDS011;32064;49.310;8.646;2023-03-01T12:56:05;9.88;;;8.90;;
19735;SDS011;32064;49.310;8.646;2023-03-01T13:01:48;9.77;;;8.70;;
19735;SDS011;32064;49.310;8.646;2023-03-01T13:04:37;9.85;;;8.85;;
19735;SDS011;32064;49.310;8.646;2023-03-01T13:07:25;10.38;;;9.27;;
19735;SDS011;32064;49.310;8.646;2023-03-01T13:17:46;10.18;;;9.18;;
19735;SDS011;32064;49.310;8.646;2023-03-01T13:20:14;10.40;;;9.25;;
19735;SDS011;32064;49.310;8.646;2023-03-01T13:22:41;11.32;;;9.55;;
19735;SDS011;32064;49.310;8.646;2023-03-01T13:25:14;12.07;;;9.68;;
19735;SDS011;32064;49.310;8.646;2023-03-01T13:27:45;10.52;;;9.43;;
19735;SDS011;32064;49.310;8.646;2023-03-01T13:36:48;9.95;;;8.73;;
19735;SDS011;32064;49.310;8.646;2023-03-01T13:41:49;10.82;;;8.85;;
19735;SDS011;32064;49.310;8.646;2023-03-01T13:46:45;10.63;;;8.90;;
19735;SDS011;32064;49.310;8.646;2023-03-01T13:49:11;11.60;;;9.05;;
19735;SDS011;32064;49.310;8.646;2023-03-01T13:51:48;9.85;;;8.85;;
19735;SDS011;32064;49.310;8.646;2023-03-01T13:54:15;9.95;;;8.95;;
19735;SDS011;32064;49.310;8.646;2023-03-01T13:56:44;10.43;;;9.30;;
19735;SDS011;32064;49.310;8.646;2023-03-01T13:59:20;9.77;;;8.27;;
19735;SDS011;32064;49.310;8.646;2023-03-01T14:01:54;10.63;;;9.45;;
19735;SDS011;32064;49.310;8.646;2023-03-01T14:04:22;9.98;;;8.98;;
19735;SDS011;32064;49.310;8.646;2023-03-01T14:06:50;12.30;;;9.63;;
19735;SDS011;32064;49.310;8.646;2023-03-01T14:11:54;11.52;;;8.93;;
19735;SDS011;32064;49.310;8.646;2023-03-01T14:14:44;11.60;;;8.95;;
19735;SDS011;32064;49.310;8.646;2023-03-01T14:19:57;9.45;;;8.45;;
19735;SDS011;32064;49.310;8.646;2023-03-01T14:22:34;9.15;;;8.23;;
19735;SDS011;32064;49.310;8.646;2023-03-01T14:25:05;9.32;;;8.43;;
19735;SDS011;32064;49.310;8.646;2023-03-01T14:27:54;11.35;;;9.07;;
19735;SDS011;32064;49.310;8.646;2023-03-01T14:30:36;9.40;;;8.48;;
19735;SDS011;32064;49.310;8.646;2023-03-01T14:33:04;10.20;;;9.10;;
19735;SDS011;32064;49.310;8.646;2023-03-01T14:35:33;9.73;;;8.60;;
19735;SDS011;32064;49.310;8.646;2023-03-01T14:38:00;10.70;;;8.47;;
19735;SDS011;32064;49.310;8.646;2023-03-01T14:42:54;9.97;;;8.53;;
19735;SDS011;32064;49.310;8.646;2023-03-01T14:45:24;8.83;;;7.90;;
19735;SDS011;32064;49.310;8.646;2023-03-01T14:47:52;9.60;;;8.70;;
19735;SDS011;32064;49.310;8.646;2023-03-01T14:50:27;9.83;;;8.83;;
19735;SDS011;32064;49.310;8.646;2023-03-01T14:52:56;11.10;;;9.17;;
19735;SDS011;32064;49.310;8.646;2023-03-01T14:57:52;9.80;;;8.00;;
19735;SDS011;32064;49.310;8.646;2023-03-01T15:00:20;10.03;;;8.93;;
19735;SDS011;32064;49.310;8.646;2023-03-01T15:02:48;11.93;;;8.47;;
19735;SDS011;32064;49.310;8.646;2023-03-01T15:05:16;10.17;;;8.73;;
19735;SDS011;32064;49.310;8.646;2023-03-01T15:07:50;9.50;;;8.50;;
19735;SDS011;32064;49.310;8.646;2023-03-01T15:10:24;12.77;;;8.43;;
19735;SDS011;32064;49.310;8.646;2023-03-01T15:12:51;11.07;;;8.60;;
19735;SDS011;32064;49.310;8.646;2023-03-01T15:18:15;8.83;;;7.93;;
19735;SDS011;32064;49.310;8.646;2023-03-01T15:20:47;10.20;;;8.83;;
19735;SDS011;32064;49.310;8.646;2023-03-01T15:23:24;10.37;;;8.63;;
19735;SDS011;32064;49.310;8.646;2023-03-01T15:25:52;11.27;;;8.60;;
19735;SDS011;32064;49.310;8.646;2023-03-01T15:28:23;10.27;;;8.97;;
19735;SDS011;32064;49.310;8.646;2023-03-01T15:30:53;10.53;;;9.43;;
19735;SDS011;32064;49.310;8.646;2023-03-01T15:35:56;9.93;;;8.87;;
19735;SDS011;32064;49.310;8.646;2023-03-01T15:38:27;14.17;;;9.53;;
19735;SDS011;32064;49.310;8.646;2023-03-01T15:40:53;14.23;;;9.63;;
19735;SDS011;32064;49.310;8.646;2023-03-01T15:48:50;14.90;;;9.40;;
19735;SDS011;32064;49.310;8.646;2023-03-01T15:51:29;10.57;;;8.90;;
19735;SDS011;32064;49.310;8.646;2023-03-01T15:54:00;10.80;;;8.90;;
19735;SDS011;32064;49.310;8.646;2023-03-01T15:56:28;13.50;;;9.63;;
19735;SDS011;32064;49.310;8.646;2023-03-01T15:58:57;12.10;;;8.77;;
19735;SDS011;32064;49.310;8.646;2023-03-01T16:01:23;14.77;;;8.83;;
19735;SDS011;32064;49.310;8.646;2023-03-01T16:03:48;9.67;;;8.67;;
19735;SDS011;32064;49.310;8.646;2023-03-01T16:06:14;11.40;;;9.20;;
19735;SDS011;32064;49.310;8.646;2023-03-01T16:08:39;11.43;;;9.13;;
19735;SDS011;32064;49.310;8.646;2023-03-01T16:11:08;10.03;;;8.83;;
19735;SDS011;32064;49.310;8.646;2023-03-01T16:13:43;10.93;;;9.70;;
19735;SDS011;32064;49.310;8.646;2023-03-01T16:16:10;11.37;;;9.20;;
19735;SDS011;32064;49.310;8.646;2023-03-01T16:18:45;11.67;;;9.00;;
19735;SDS011;32064;49.310;8.646;2023-03-01T16:21:22;10.17;;;8.37;;
19735;SDS011;32064;49.310;8.646;2023-03-01T16:23:49;11.77;;;9.13;;
19735;SDS011;32064;49.310;8.646;2023-03-01T16:26:16;12.33;;;9.20;;
19735;SDS011;32064;49.310;8.646;2023-03-01T16:28:42;13.23;;;8.10;;
19735;SDS011;32064;49.310;8.646;2023-03-01T16:31:08;11.50;;;8.53;;
19735;SDS011;32064;49.310;8.646;2023-03-01T16:33:34;9.93;;;8.90;;
19735;SDS011;32064;49.310;8.646;2023-03-01T16:36:00;11.27;;;8.30;;
19735;SDS011;32064;49.310;8.646;2023-03-01T16:38:31;10.27;;;8.90;;
19735;SDS011;32064;49.310;8.646;2023-03-01T16:40:57;10.83;;;8.83;;
19735;SDS011;32064;49.310;8.646;2023-03-01T16:43:22;10.83;;;8.37;;
19735;SDS011;32064;49.310;8.646;2023-03-01T16:45:47;10.70;;;8.93;;
19735;SDS011;32064;49.310;8.646;2023-03-01T16:48:13;11.90;;;8.50;;